createdAt,value
2023-05-11T00:02:05.895Z,8.13
2023-05-11T00:04:36.057Z,7.57
2023-05-11T00:07:04.266Z,8.52
2023-05-11T00:09:33.006Z,8.23
2023-05-11T00:12:01.635Z,8.35
2023-05-11T00:14:30.054Z,8.20
2023-05-11T00:16:58.195Z,8.00
2023-05-11T00:19:26.717Z,7.93
2023-05-11T00:21:56.315Z,8.45
2023-05-11T00:24:24.663Z,7.65
2023-05-11T00:26:52.843Z,8.20
2023-05-11T00:29:21.351Z,7.45
2023-05-11T00:31:50.013Z,7.22
2023-05-11T00:34:20.405Z,8.15
2023-05-11T00:36:49.493Z,8.50
2023-05-11T00:39:19.275Z,8.18
2023-05-11T00:41:47.594Z,7.72
2023-05-11T00:44:15.992Z,8.77
2023-05-11T00:46:44.393Z,7.85
2023-05-11T00:49:17.015Z,9.02
2023-05-11T00:54:15.413Z,8.38
2023-05-11T00:56:44.946Z,8.65
2023-05-11T00:59:14.046Z,9.55
2023-05-11T01:01:42.192Z,9.75
2023-05-11T01:04:11.026Z,11.32
2023-05-11T01:06:46.606Z,10.45
2023-05-11T01:09:23.546Z,10.73
2023-05-11T01:12:01.686Z,12.43
2023-05-11T01:14:37.258Z,13.20
2023-05-11T01:17:13.036Z,13.73
2023-05-11T01:19:44.896Z,12.98
2023-05-11T01:22:28.822Z,13.02
2023-05-11T01:25:08.689Z,12.18
2023-05-11T01:27:51.739Z,12.05
2023-05-11T01:30:44.366Z,12.15
2023-05-11T01:33:13.700Z,11.68
2023-05-11T01:35:46.688Z,10.50
2023-05-11T01:38:15.676Z,10.88
2023-05-11T01:40:45.847Z,11.93
2023-05-11T01:43:15.606Z,10.80
2023-05-11T01:45:51.153Z,10.50
2023-05-11T01:48:24.183Z,10.32
2023-05-11T01:50:52.924Z,10.75
2023-05-11T01:53:21.793Z,11.10
2023-05-11T01:55:51.018Z,10.52
2023-05-11T01:58:19.994Z,11.05
2023-05-11T02:00:50.189Z,10.45
2023-05-11T02:03:20.108Z,11.77
2023-05-11T02:05:49.278Z,9.77
2023-05-11T02:08:18.507Z,10.68
2023-05-11T02:10:48.064Z,11.25
2023-05-11T02:13:17.745Z,11.07
2023-05-11T02:15:46.822Z,10.68
2023-05-11T02:18:16.826Z,10.82
2023-05-11T02:20:46.487Z,10.57
2023-05-11T02:23:15.198Z,11.68
2023-05-11T02:25:44.355Z,11.52
2023-05-11T02:28:12.573Z,11.32
2023-05-11T02:30:44.769Z,10.82
2023-05-11T02:33:18.460Z,11.57
2023-05-11T02:35:48.408Z,11.02
2023-05-11T02:38:16.810Z,11.57
2023-05-11T02:40:48.288Z,10.45
2023-05-11T02:43:21.883Z,10.40
2023-05-11T02:45:52.630Z,11.15
2023-05-11T02:48:26.184Z,10.65
2023-05-11T02:50:56.920Z,10.98
2023-05-11T02:53:28.318Z,11.27
2023-05-11T02:55:57.123Z,11.18
2023-05-11T02:58:25.676Z,11.25
2023-05-11T03:00:54.465Z,11.32
2023-05-11T03:03:24.022Z,10.57
2023-05-11T03:05:52.425Z,11.07
2023-05-11T03:08:20.848Z,11.07
2023-05-11T03:10:49.208Z,11.02
2023-05-11T03:13:17.579Z,10.32
2023-05-11T03:15:46.131Z,11.38
2023-05-11T03:18:14.679Z,10.68
2023-05-11T03:20:44.763Z,11.40
2023-05-11T03:23:13.547Z,11.55
2023-05-11T03:25:42.882Z,11.68
2023-05-11T03:28:11.440Z,11.50
2023-05-11T03:30:41.138Z,12.57
2023-05-11T03:33:09.761Z,11.80
2023-05-11T03:35:38.935Z,11.73
2023-05-11T03:38:09.205Z,11.48
2023-05-11T03:40:38.933Z,9.85
2023-05-11T03:43:08.786Z,10.98
2023-05-11T03:45:38.054Z,10.35
2023-05-11T03:48:07.238Z,10.73
2023-05-11T03:50:35.677Z,10.98
2023-05-11T03:53:03.814Z,10.48
2023-05-11T03:55:33.820Z,11.30
2023-05-11T03:58:04.188Z,10.63
2023-05-11T04:00:32.914Z,10.15
2023-05-11T04:03:05.999Z,11.13
2023-05-11T04:05:34.382Z,10.10
2023-05-11T04:08:03.103Z,10.55
2023-05-11T04:10:33.189Z,10.52
2023-05-11T04:13:01.274Z,10.20
2023-05-11T04:15:29.938Z,10.90
2023-05-11T04:17:58.180Z,10.10
2023-05-11T04:20:26.631Z,9.95
2023-05-11T04:22:54.715Z,10.25
2023-05-11T04:25:23.667Z,10.27
2023-05-11T04:27:53.152Z,10.18
2023-05-11T04:30:21.841Z,9.90
2023-05-11T04:32:50.274Z,9.25
2023-05-11T04:35:18.851Z,9.65
2023-05-11T04:37:46.981Z,8.93
2023-05-11T04:40:15.676Z,8.55
2023-05-11T04:42:43.977Z,9.55
2023-05-11T04:45:14.160Z,9.80
2023-05-11T04:47:42.270Z,9.38
2023-05-11T04:50:11.624Z,9.00
2023-05-11T04:52:39.698Z,9.48
2023-05-11T04:55:08.791Z,8.60
2023-05-11T04:57:38.709Z,9.18
2023-05-11T05:00:08.702Z,8.32
2023-05-11T05:02:38.269Z,8.60
2023-05-11T05:05:07.596Z,8.80
2023-05-11T05:07:35.696Z,9.45
2023-05-11T05:10:08.731Z,9.23
2023-05-11T05:12:37.213Z,9.13
2023-05-11T05:15:06.603Z,9.73
2023-05-11T05:17:34.876Z,9.80
2023-05-11T05:20:05.069Z,9.82
2023-05-11T05:22:33.310Z,9.07
2023-05-11T05:25:01.795Z,9.75
2023-05-11T05:27:29.886Z,9.43
2023-05-11T05:29:58.274Z,8.65
2023-05-11T05:32:26.443Z,8.73
2023-05-11T05:34:54.792Z,9.27
2023-05-11T05:37:24.238Z,9.32
2023-05-11T05:39:52.581Z,8.15
2023-05-11T05:42:22.300Z,8.25
2023-05-11T05:44:51.377Z,8.73
2023-05-11T05:47:19.475Z,9.45
2023-05-11T05:49:47.868Z,8.52
2023-05-11T05:52:16.030Z,8.63
2023-05-11T05:54:45.722Z,8.77
2023-05-11T05:57:15.658Z,8.32
2023-05-11T05:59:44.284Z,8.57
2023-05-11T06:02:13.382Z,7.85
2023-05-11T06:04:42.271Z,8.55
2023-05-11T06:07:10.425Z,8.60
2023-05-11T06:09:39.303Z,8.00
2023-05-11T06:12:09.970Z,9.45
2023-05-11T06:14:38.360Z,8.43
2023-05-11T06:17:06.479Z,7.60
2023-05-11T06:19:35.127Z,7.90
2023-05-11T06:22:06.350Z,7.30
2023-05-11T06:24:35.202Z,8.10
2023-05-11T06:27:03.307Z,7.65
2023-05-11T06:29:32.986Z,8.30
2023-05-11T06:32:01.469Z,8.23
2023-05-11T06:34:29.993Z,7.88
2023-05-11T06:37:00.479Z,8.55
2023-05-11T06:39:28.848Z,8.35
2023-05-11T06:41:58.809Z,7.78
2023-05-11T06:44:29.967Z,7.82
2023-05-11T06:47:01.015Z,7.55
2023-05-11T06:49:29.757Z,8.73
2023-05-11T06:51:57.829Z,7.72
2023-05-11T06:54:26.222Z,8.05
2023-05-11T06:56:54.282Z,7.38
2023-05-11T06:59:22.825Z,7.20
2023-05-11T07:01:50.919Z,7.82
2023-05-11T07:04:20.718Z,8.35
2023-05-11T07:06:48.851Z,7.45
2023-05-11T07:09:17.179Z,6.40
2023-05-11T07:11:45.382Z,8.88
2023-05-11T07:14:14.067Z,26.02
2023-05-11T07:16:42.244Z,7.55
2023-05-11T07:19:10.715Z,7.50
2023-05-11T07:21:40.563Z,7.70
2023-05-11T07:24:09.131Z,6.72
2023-05-11T07:26:37.318Z,7.60
2023-05-11T07:29:05.657Z,6.78
2023-05-11T07:31:34.498Z,7.03
2023-05-11T07:34:02.900Z,8.02
2023-05-11T07:36:31.580Z,7.68
2023-05-11T07:39:01.301Z,7.60
2023-05-11T07:41:30.855Z,6.82
2023-05-11T07:44:01.492Z,7.13
2023-05-11T07:46:29.796Z,7.95
2023-05-11T07:49:11.349Z,8.15
2023-05-11T07:51:44.159Z,7.43
2023-05-11T07:54:14.040Z,6.55
2023-05-11T07:56:42.215Z,6.20
2023-05-11T07:59:10.878Z,6.07
2023-05-11T08:01:39.072Z,6.00
2023-05-11T08:04:07.592Z,7.00
2023-05-11T08:06:35.836Z,7.60
2023-05-11T08:09:04.536Z,7.72
2023-05-11T08:11:33.981Z,5.80
2023-05-11T08:14:03.238Z,6.07
2023-05-11T08:16:31.572Z,4.85
2023-05-11T08:18:59.986Z,5.75
2023-05-11T08:21:28.174Z,5.03
2023-05-11T08:23:56.598Z,5.88
2023-05-11T08:26:24.680Z,5.38
2023-05-11T08:28:54.107Z,5.97
2023-05-11T08:31:22.488Z,5.35
2023-05-11T08:33:50.655Z,5.15
2023-05-11T08:36:19.160Z,5.50
2023-05-11T08:38:47.273Z,5.53
2023-05-11T08:41:15.915Z,5.22
2023-05-11T08:43:44.742Z,5.10
2023-05-11T08:46:19.217Z,5.28
2023-05-11T08:48:47.478Z,5.78
2023-05-11T08:51:16.042Z,6.32
2023-05-11T08:53:44.138Z,5.85
2023-05-11T08:56:13.528Z,5.13
2023-05-11T08:58:42.928Z,4.13
2023-05-11T09:01:12.275Z,4.88
2023-05-11T09:03:43.045Z,4.32
2023-05-11T09:06:11.929Z,3.60
2023-05-11T09:08:41.141Z,3.70
2023-05-11T09:11:10.014Z,3.58
2023-05-11T09:13:38.396Z,3.78
2023-05-11T09:16:13.864Z,3.97
2023-05-11T09:18:54.524Z,3.80
2023-05-11T09:21:23.177Z,3.30
2023-05-11T09:23:52.153Z,3.22
2023-05-11T09:26:22.077Z,3.63
2023-05-11T09:29:02.480Z,2.70
2023-05-11T09:31:39.538Z,2.22
2023-05-11T09:34:20.272Z,3.00
2023-05-11T09:36:50.671Z,3.15
2023-05-11T09:40:13.963Z,3.60
2023-05-11T09:42:44.338Z,3.05
2023-05-11T09:45:12.289Z,1.88
2023-05-11T09:47:41.366Z,1.80
2023-05-11T09:50:25.701Z,1.60
2023-05-11T09:52:55.685Z,1.77
2023-05-11T09:55:23.818Z,2.10
2023-05-11T09:57:55.311Z,2.10
2023-05-11T10:00:25.124Z,1.90
2023-05-11T10:03:04.268Z,2.05
2023-05-11T10:05:35.486Z,1.45
2023-05-11T10:08:04.948Z,1.38
2023-05-11T10:10:34.312Z,1.58
2023-05-11T10:13:03.817Z,1.90
2023-05-11T10:15:33.899Z,1.42
2023-05-11T10:18:02.427Z,1.48
2023-05-11T10:20:30.368Z,1.40
2023-05-11T10:23:00.039Z,1.50
2023-05-11T10:25:28.011Z,1.52
2023-05-11T10:27:56.166Z,1.60
2023-05-11T10:30:24.456Z,1.48
2023-05-11T10:32:53.129Z,1.67
2023-05-11T10:35:21.241Z,1.60
2023-05-11T10:37:49.807Z,1.42
2023-05-11T10:40:19.945Z,1.40
2023-05-11T10:43:12.894Z,1.48
2023-05-11T10:45:50.550Z,1.10
2023-05-11T10:48:49.378Z,1.50
2023-05-11T10:51:32.211Z,1.30
2023-05-11T10:54:10.120Z,1.60
2023-05-11T10:56:54.066Z,1.42
2023-05-11T10:59:46.542Z,1.40
2023-05-11T11:02:14.640Z,1.80
2023-05-11T11:04:44.959Z,1.50
2023-05-11T11:07:17.156Z,1.20
2023-05-11T11:09:53.768Z,1.30
2023-05-11T11:12:23.844Z,1.50
2023-05-11T11:14:56.147Z,1.23
2023-05-11T11:19:53.592Z,1.58
2023-05-11T11:22:47.198Z,2.00
2023-05-11T11:25:17.413Z,1.38
2023-05-11T11:27:59.909Z,1.70
2023-05-11T11:30:30.432Z,1.80
2023-05-11T11:33:31.730Z,1.70
2023-05-11T11:35:59.996Z,2.08
2023-05-11T11:38:29.436Z,1.73
2023-05-11T11:40:57.911Z,2.13
2023-05-11T11:43:45.143Z,1.42
2023-05-11T11:46:26.945Z,1.48
2023-05-11T11:49:08.067Z,1.98
2023-05-11T11:51:37.347Z,1.50
2023-05-11T11:54:08.552Z,1.73
2023-05-11T11:56:46.827Z,1.77
2023-05-11T11:59:16.567Z,1.52
2023-05-11T12:01:46.194Z,1.58
2023-05-11T12:04:40.948Z,1.50
2023-05-11T12:07:11.362Z,1.35
2023-05-11T12:09:42.331Z,1.33
2023-05-11T12:12:11.796Z,1.70
2023-05-11T12:14:48.674Z,1.63
2023-05-11T12:17:24.157Z,1.40
2023-05-11T12:19:52.234Z,1.48
2023-05-11T12:22:24.333Z,1.77
2023-05-11T12:27:20.714Z,1.80
2023-05-11T12:29:53.333Z,1.77
2023-05-11T12:32:31.487Z,1.40
2023-05-11T12:35:01.174Z,1.40
2023-05-11T12:37:29.914Z,1.88
2023-05-11T12:39:58.702Z,1.48
2023-05-11T12:42:27.612Z,1.58
2023-05-11T12:44:57.104Z,1.30
2023-05-11T12:47:25.371Z,1.55
2023-05-11T12:49:53.497Z,1.42
2023-05-11T12:52:24.353Z,1.75
2023-05-11T12:54:53.739Z,1.30
2023-05-11T12:57:26.218Z,1.50
2023-05-11T13:00:11.110Z,1.20
2023-05-11T13:02:47.961Z,2.00
2023-05-11T13:05:16.828Z,1.40
2023-05-11T13:07:45.419Z,1.73
2023-05-11T13:10:13.950Z,1.40
2023-05-11T13:12:52.329Z,1.23
2023-05-11T13:15:22.923Z,1.73
2023-05-11T13:17:57.844Z,1.40
2023-05-11T13:20:27.540Z,1.58
2023-05-11T13:23:04.875Z,1.38
2023-05-11T13:25:33.174Z,1.35
2023-05-11T13:28:01.564Z,1.50
2023-05-11T13:30:33.415Z,1.40
2023-05-11T13:33:03.314Z,1.60
2023-05-11T13:35:31.423Z,1.55
2023-05-11T13:37:59.834Z,1.45
2023-05-11T13:40:27.908Z,1.52
2023-05-11T13:42:56.774Z,1.63
2023-05-11T13:45:24.792Z,1.70
2023-05-11T13:47:55.330Z,1.88
2023-05-11T13:50:23.494Z,1.70
2023-05-11T13:52:51.669Z,1.73
2023-05-11T13:55:20.120Z,1.30
2023-05-11T13:57:48.603Z,1.60
2023-05-11T14:00:17.462Z,1.80
2023-05-11T14:02:48.038Z,1.67
2023-05-11T14:05:18.518Z,2.03
2023-05-11T14:07:48.423Z,2.08
2023-05-11T14:10:17.089Z,1.65
2023-05-11T14:12:45.672Z,1.70
2023-05-11T14:15:13.636Z,1.85
2023-05-11T14:17:43.095Z,1.70
2023-05-11T14:20:12.504Z,1.23
2023-05-11T14:22:42.483Z,1.92
2023-05-11T14:25:11.088Z,1.70
2023-05-11T14:27:39.412Z,1.55
2023-05-11T14:30:08.632Z,1.70
2023-05-11T14:32:37.286Z,1.80
2023-05-11T14:35:05.771Z,1.48
2023-05-11T14:37:34.115Z,1.60
2023-05-11T14:40:03.414Z,1.73
2023-05-11T14:42:31.633Z,2.03
2023-05-11T14:44:59.667Z,1.60
2023-05-11T14:47:27.833Z,1.60
2023-05-11T14:49:55.873Z,1.70
2023-05-11T14:52:24.315Z,1.50
2023-05-11T14:54:52.223Z,2.63
2023-05-11T14:57:21.764Z,1.77
2023-05-11T14:59:58.977Z,1.65
2023-05-11T15:02:29.447Z,1.70
2023-05-11T15:04:57.678Z,1.75
2023-05-11T15:07:25.917Z,1.60
2023-05-11T15:09:54.251Z,1.70
2023-05-11T15:12:24.566Z,1.92
2023-05-11T15:14:52.486Z,2.10
2023-05-11T15:17:20.932Z,1.60
2023-05-11T15:19:49.050Z,1.80
2023-05-11T15:22:18.989Z,1.67
2023-05-11T15:24:46.926Z,1.58
2023-05-11T15:27:15.301Z,2.58
2023-05-11T15:29:44.601Z,2.25
2023-05-11T15:32:15.150Z,1.60
2023-05-11T15:34:57.979Z,1.73
2023-05-11T15:37:27.165Z,1.50
2023-05-11T15:39:55.101Z,1.70
2023-05-11T15:42:23.291Z,1.48
2023-05-11T15:44:52.538Z,2.90
2023-05-11T15:47:20.730Z,1.58
2023-05-11T15:49:48.692Z,1.95
2023-05-11T15:52:16.910Z,1.73
2023-05-11T15:54:44.848Z,1.52
2023-05-11T15:57:12.992Z,1.63
2023-05-11T15:59:40.948Z,2.08
2023-05-11T16:02:10.775Z,1.75
2023-05-11T16:04:38.684Z,1.60
2023-05-11T16:07:07.075Z,1.60
2023-05-11T16:09:35.348Z,1.75
2023-05-11T16:12:03.601Z,2.30
2023-05-11T16:14:32.033Z,1.80
2023-05-11T16:17:01.488Z,1.33
2023-05-11T16:19:31.472Z,1.55
2023-05-11T16:21:59.625Z,1.67
2023-05-11T16:24:30.961Z,2.08
2023-05-11T16:27:00.565Z,1.20
2023-05-11T16:29:28.617Z,2.40
2023-05-11T16:31:56.875Z,1.77
2023-05-11T16:34:24.810Z,1.77
2023-05-11T16:36:55.335Z,1.40
2023-05-11T16:39:24.752Z,1.50
2023-05-11T16:41:52.872Z,1.45
2023-05-11T16:44:21.108Z,1.85
2023-05-11T16:46:49.747Z,1.60
2023-05-11T16:49:17.685Z,1.30
2023-05-11T16:51:46.112Z,1.52
2023-05-11T16:54:15.337Z,1.90
2023-05-11T16:56:43.469Z,1.92
2023-05-11T16:59:11.869Z,1.92
2023-05-11T17:01:40.207Z,1.65
2023-05-11T17:04:08.296Z,2.33
2023-05-11T17:06:36.722Z,2.08
2023-05-11T17:09:05.040Z,1.90
2023-05-11T17:11:34.545Z,2.42
2023-05-11T17:14:02.748Z,2.08
2023-05-11T17:16:30.991Z,1.77
2023-05-11T17:19:00.024Z,2.40
2023-05-11T17:21:28.584Z,1.50
2023-05-11T17:23:56.475Z,1.90
2023-05-11T17:26:27.417Z,2.00
2023-05-11T17:29:01.809Z,2.50
2023-05-11T17:31:30.095Z,2.28
2023-05-11T17:33:58.335Z,2.45
2023-05-11T17:36:29.272Z,2.10
2023-05-11T17:38:57.151Z,2.25
2023-05-11T17:41:25.270Z,2.28
2023-05-11T17:43:53.238Z,2.63
2023-05-11T17:46:22.752Z,4.20
2023-05-11T17:48:52.475Z,3.78
2023-05-11T17:51:20.899Z,2.97
2023-05-11T17:53:49.718Z,2.80
2023-05-11T17:56:18.139Z,3.05
2023-05-11T17:58:46.213Z,2.92
2023-05-11T18:01:14.636Z,2.70
2023-05-11T18:03:44.056Z,2.80
2023-05-11T18:06:12.405Z,2.42
2023-05-11T18:08:40.860Z,2.65
2023-05-11T18:11:10.851Z,2.75
2023-05-11T18:13:39.078Z,2.95
2023-05-11T18:16:07.474Z,3.28
2023-05-11T18:18:36.086Z,3.05
2023-05-11T18:21:07.303Z,2.72
2023-05-11T18:23:35.267Z,2.80
2023-05-11T18:26:03.764Z,3.20
2023-05-11T18:28:31.861Z,3.53
2023-05-11T18:31:00.244Z,4.13
2023-05-11T18:33:28.383Z,4.53
2023-05-11T18:35:56.842Z,4.00
2023-05-11T18:38:26.077Z,4.07
2023-05-11T18:40:54.692Z,3.90
2023-05-11T18:43:22.744Z,3.85
2023-05-11T18:45:52.686Z,3.85
2023-05-11T18:48:21.383Z,6.47
2023-05-11T18:50:55.048Z,6.63
2023-05-11T18:53:23.354Z,6.70
2023-05-11T18:55:54.064Z,6.13
2023-05-11T18:58:22.388Z,5.45
2023-05-11T19:00:51.511Z,4.88
2023-05-11T19:03:21.944Z,4.38
2023-05-11T19:05:52.072Z,5.03
2023-05-11T19:08:20.043Z,5.30
2023-05-11T19:10:49.382Z,4.65
2023-05-11T19:13:18.884Z,4.40
2023-05-11T19:15:47.130Z,4.28
2023-05-11T19:18:15.262Z,6.03
2023-05-11T19:20:43.689Z,5.45
2023-05-11T19:23:11.670Z,5.80
2023-05-11T19:25:40.301Z,5.22
2023-05-11T19:28:08.171Z,5.28
2023-05-11T19:30:37.988Z,5.05
2023-05-11T19:33:05.953Z,5.22
2023-05-11T19:35:34.180Z,4.90
2023-05-11T19:38:03.143Z,4.90
2023-05-11T19:43:02.785Z,5.18
2023-05-11T19:45:33.096Z,4.80
2023-05-11T19:48:02.664Z,6.85
2023-05-11T19:50:30.997Z,7.25
2023-05-11T19:52:58.939Z,4.45
2023-05-11T19:55:27.149Z,5.22
2023-05-11T19:57:55.046Z,4.97
2023-05-11T20:00:25.080Z,4.97
2023-05-11T20:02:53.533Z,5.32
2023-05-11T20:05:23.319Z,4.97
2023-05-11T20:07:51.199Z,4.43
2023-05-11T20:10:19.658Z,5.47
2023-05-11T20:12:48.017Z,6.18
2023-05-11T20:15:16.256Z,4.63
2023-05-11T20:17:44.250Z,4.60
2023-05-11T20:20:13.068Z,5.00
2023-05-11T20:22:42.352Z,4.38
2023-05-11T20:25:17.927Z,4.47
2023-05-11T20:27:46.672Z,5.40
2023-05-11T20:30:15.202Z,5.32
2023-05-11T20:34:06.814Z,4.65
2023-05-11T20:35:32.857Z,5.25
2023-05-11T20:38:02.310Z,5.03
2023-05-11T20:40:31.309Z,4.90
2023-05-11T20:42:59.226Z,4.35
2023-05-11T20:45:27.463Z,5.13
2023-05-11T20:47:55.596Z,5.13
2023-05-11T20:50:24.540Z,4.10
2023-05-11T20:52:52.418Z,4.90
2023-05-11T20:55:22.436Z,5.47
2023-05-11T20:57:50.413Z,5.15
2023-05-11T21:00:18.805Z,4.90
2023-05-11T21:02:47.297Z,5.40
2023-05-11T21:05:15.618Z,6.43
2023-05-11T21:07:43.512Z,5.60
2023-05-11T21:10:13.248Z,6.13
2023-05-11T21:12:42.458Z,6.03
2023-05-11T21:15:11.178Z,6.03
2023-05-11T21:17:39.202Z,6.38
2023-05-11T21:20:08.506Z,4.68
2023-05-11T21:22:38.194Z,5.70
2023-05-11T21:25:07.194Z,5.25
2023-05-11T21:27:35.308Z,4.85
2023-05-11T21:30:05.549Z,5.75
2023-05-11T21:32:33.469Z,5.18
2023-05-11T21:35:01.711Z,5.60
2023-05-11T21:37:33.315Z,5.72
2023-05-11T21:40:01.787Z,5.75
2023-05-11T21:42:34.528Z,4.82
2023-05-11T21:45:04.949Z,5.47
2023-05-11T21:47:32.883Z,4.60
2023-05-11T21:50:01.035Z,4.93
2023-05-11T21:52:29.250Z,4.97
2023-05-11T21:54:57.404Z,5.10
2023-05-11T21:57:25.307Z,4.63
2023-05-11T21:59:53.684Z,5.20
2023-05-11T22:02:23.666Z,5.15
2023-05-11T22:04:52.068Z,5.13
2023-05-11T22:07:20.331Z,5.47
2023-05-11T22:09:48.458Z,5.07
2023-05-11T22:12:16.333Z,5.53
2023-05-11T22:14:45.730Z,5.55
2023-05-11T22:17:13.768Z,5.00
2023-05-11T22:19:43.275Z,5.40
2023-05-11T22:22:11.392Z,5.13
2023-05-11T22:24:39.565Z,4.85
2023-05-11T22:27:09.787Z,5.00
2023-05-11T22:29:38.086Z,4.80
2023-05-11T22:32:06.945Z,5.05
2023-05-11T22:34:35.335Z,5.35
2023-05-11T22:37:05.672Z,5.25
2023-05-11T22:39:34.460Z,5.03
2023-05-11T22:42:02.374Z,4.90
2023-05-11T22:44:30.538Z,4.97
2023-05-11T22:46:59.238Z,5.07
2023-05-11T22:49:28.457Z,5.32
2023-05-11T22:51:58.608Z,5.30
2023-05-11T22:54:28.289Z,6.00
2023-05-11T22:56:56.157Z,5.05
2023-05-11T22:59:24.749Z,6.05
2023-05-11T23:01:53.811Z,5.57
2023-05-11T23:04:21.934Z,5.63
2023-05-11T23:06:49.789Z,6.05
2023-05-11T23:09:17.991Z,6.13
2023-05-11T23:11:48.585Z,6.82
2023-05-11T23:14:16.757Z,6.03
2023-05-11T23:16:44.709Z,6.65
2023-05-11T23:19:13.130Z,6.70
2023-05-11T23:21:41.010Z,6.95
2023-05-11T23:24:09.422Z,7.32
2023-05-11T23:26:37.666Z,7.35
2023-05-11T23:29:07.401Z,7.60
2023-05-11T23:31:35.656Z,7.22
2023-05-11T23:34:03.957Z,7.88
2023-05-11T23:36:32.228Z,7.20
2023-05-11T23:39:00.389Z,6.72
2023-05-11T23:41:28.272Z,7.28
2023-05-11T23:43:56.417Z,8.00
2023-05-11T23:46:26.073Z,7.13
2023-05-11T23:48:55.000Z,7.85
2023-05-11T23:51:23.156Z,7.88
2023-05-11T23:53:51.302Z,7.70
2023-05-11T23:56:19.350Z,8.02
2023-05-11T23:58:48.041Z,6.97
